createdAt,value
2023-04-28T00:01:36.927Z,96596.09
2023-04-28T00:03:38.818Z,96584.91
2023-04-28T00:05:41.198Z,96588.38
2023-04-28T00:07:42.851Z,96590.72
2023-04-28T00:09:44.518Z,96587.25
2023-04-28T00:11:46.737Z,96592.22
2023-04-28T00:13:48.452Z,96583.44
2023-04-28T00:15:52.729Z,96587.91
2023-04-28T00:17:54.405Z,96579.78
2023-04-28T00:19:56.021Z,96579.56
2023-04-28T00:21:57.794Z,96575.63
2023-04-28T00:23:59.549Z,96571.69
2023-04-28T00:26:01.170Z,96570.44
2023-04-28T00:28:02.919Z,96573.16
2023-04-28T00:30:05.391Z,96571.13
2023-04-28T00:32:08.328Z,96569.25
2023-04-28T00:34:14.309Z,96567.88
2023-04-28T00:36:16.803Z,96567.34
2023-04-28T00:38:18.478Z,96559.16
2023-04-28T00:40:20.029Z,96552.72
2023-04-28T00:42:21.712Z,96550.16
2023-04-28T00:44:23.461Z,96557.31
2023-04-28T00:46:29.476Z,96558.97
2023-04-28T00:48:31.474Z,96556.06
2023-04-28T00:50:33.340Z,96541.84
2023-04-28T00:52:34.945Z,96543.28
2023-04-28T00:54:37.782Z,96529.25
2023-04-28T00:56:39.578Z,96527.00
2023-04-28T00:58:41.680Z,96521.44
2023-04-28T01:00:43.810Z,96530.47
2023-04-28T01:02:45.668Z,96519.81
2023-04-28T01:04:48.171Z,96524.50
2023-04-28T01:06:53.501Z,96529.84
2023-04-28T01:08:55.909Z,96527.69
2023-04-28T01:10:57.739Z,96533.34
2023-04-28T01:13:26.622Z,96528.63
2023-04-28T01:15:29.536Z,96513.72
2023-04-28T01:17:31.094Z,96511.41
2023-04-28T01:19:32.912Z,96510.19
2023-04-28T01:21:34.667Z,96509.09
2023-04-28T01:23:46.499Z,96503.84
2023-04-28T01:25:48.640Z,96501.28
2023-04-28T01:27:51.035Z,96502.25
2023-04-28T01:29:52.863Z,96500.41
2023-04-28T01:31:54.480Z,96501.59
2023-04-28T01:33:56.220Z,96504.38
2023-04-28T01:35:59.184Z,96497.19
2023-04-28T01:38:01.222Z,96496.38
2023-04-28T01:40:02.849Z,96497.94
2023-04-28T01:42:04.684Z,96493.66
2023-04-28T01:44:07.585Z,96483.06
2023-04-28T01:46:09.955Z,96481.22
2023-04-28T01:48:11.777Z,96481.47
2023-04-28T01:50:13.506Z,96497.53
2023-04-28T01:52:15.218Z,96495.41
2023-04-28T01:54:17.862Z,96488.75
2023-04-28T01:56:19.720Z,96477.31
2023-04-28T01:58:21.479Z,96477.00
2023-04-28T02:00:23.066Z,96477.13
2023-04-28T02:02:26.046Z,96477.53
2023-04-28T02:04:27.777Z,96474.50
2023-04-28T02:06:29.545Z,96476.06
2023-04-28T02:08:31.959Z,96464.69
2023-04-28T02:10:33.880Z,96454.13
2023-04-28T02:12:35.654Z,96456.56
2023-04-28T02:14:37.275Z,96453.63
2023-04-28T02:16:38.766Z,96458.75
2023-04-28T02:18:40.344Z,96454.88
2023-04-28T02:20:42.204Z,96455.16
2023-04-28T02:22:45.165Z,96453.97
2023-04-28T02:24:46.773Z,96441.09
2023-04-28T02:26:48.915Z,96452.16
2023-04-28T02:28:50.382Z,96444.75
2023-04-28T02:31:09.759Z,96440.44
2023-04-28T02:33:11.988Z,96437.63
2023-04-28T02:35:14.487Z,96442.03
2023-04-28T02:37:16.135Z,96443.03
2023-04-28T02:39:17.906Z,96449.38
2023-04-28T02:41:19.501Z,96448.56
2023-04-28T02:43:21.107Z,96453.31
2023-04-28T02:45:22.930Z,96445.47
2023-04-28T02:47:25.155Z,96445.47
2023-04-28T02:49:26.697Z,96439.66
2023-04-28T02:51:28.461Z,96438.28
2023-04-28T02:53:30.003Z,96433.25
2023-04-28T02:55:32.181Z,96432.78
2023-04-28T02:57:34.174Z,96446.38
2023-04-28T02:59:36.288Z,96442.09
2023-04-28T03:01:37.843Z,96455.47
2023-04-28T03:03:39.771Z,96454.94
2023-04-28T03:05:42.099Z,96443.31
2023-04-28T03:07:43.688Z,96428.88
2023-04-28T03:09:46.316Z,96433.09
2023-04-28T03:11:47.913Z,96429.63
2023-04-28T03:13:49.472Z,96434.41
2023-04-28T03:15:52.362Z,96437.13
2023-04-28T03:17:54.019Z,96438.72
2023-04-28T03:19:55.895Z,96436.16
2023-04-28T03:21:57.917Z,96436.91
2023-04-28T03:23:59.567Z,96432.16
2023-04-28T03:26:01.656Z,96434.31
2023-04-28T03:28:04.011Z,96423.91
2023-04-28T03:30:06.566Z,96417.97
2023-04-28T03:32:08.639Z,96426.63
2023-04-28T03:34:10.597Z,96423.69
2023-04-28T03:36:12.322Z,96411.47
2023-04-28T03:38:14.589Z,96421.13
2023-04-28T03:40:18.631Z,96421.34
2023-04-28T03:42:38.690Z,96414.63
2023-04-28T03:44:43.110Z,96411.50
2023-04-28T03:46:44.787Z,96401.13
2023-04-28T03:48:47.155Z,96408.59
2023-04-28T03:50:48.834Z,96403.69
2023-04-28T03:52:51.296Z,96402.97
2023-04-28T03:54:53.183Z,96402.56
2023-04-28T03:56:55.088Z,96400.63
2023-04-28T03:58:56.625Z,96406.72
2023-04-28T04:00:58.228Z,96397.13
2023-04-28T04:03:00.794Z,96396.75
2023-04-28T04:05:02.803Z,96396.31
2023-04-28T04:07:06.280Z,96397.97
2023-04-28T04:09:08.035Z,96407.81
2023-04-28T04:11:09.630Z,96403.22
2023-04-28T04:13:11.394Z,96396.41
2023-04-28T04:15:13.392Z,96392.44
2023-04-28T04:17:17.265Z,96387.81
2023-04-28T04:19:18.808Z,96379.50
2023-04-28T04:21:24.384Z,96372.16
2023-04-28T04:23:27.327Z,96373.31
2023-04-28T04:25:30.547Z,96376.06
2023-04-28T04:27:32.640Z,96371.09
2023-04-28T04:29:34.257Z,96363.03
2023-04-28T04:31:41.305Z,96368.09
2023-04-28T04:33:42.924Z,96360.03
2023-04-28T04:35:44.943Z,96351.28
2023-04-28T04:37:46.890Z,96358.16
2023-04-28T04:39:48.531Z,96355.19
2023-04-28T04:41:50.828Z,96361.03
2023-04-28T04:44:10.433Z,96360.09
2023-04-28T04:46:17.487Z,96358.28
2023-04-28T04:48:19.747Z,96354.19
2023-04-28T04:50:21.470Z,96352.59
2023-04-28T04:52:23.524Z,96354.47
2023-04-28T04:54:26.143Z,96347.31
2023-04-28T04:56:27.996Z,96348.97
2023-04-28T04:58:29.598Z,96346.38
2023-04-28T05:00:54.437Z,96350.84
2023-04-28T05:02:56.351Z,96346.09
2023-04-28T05:05:07.935Z,96349.91
2023-04-28T05:07:14.796Z,96352.84
2023-04-28T05:09:17.207Z,96347.56
2023-04-28T05:11:19.298Z,96340.16
2023-04-28T05:13:21.630Z,96343.03
2023-04-28T05:15:29.510Z,96337.72
2023-04-28T05:17:51.498Z,96343.69
2023-04-28T05:19:53.177Z,96346.91
2023-04-28T05:21:54.900Z,96342.59
2023-04-28T05:23:57.457Z,96345.94
2023-04-28T05:25:59.378Z,96343.38
2023-04-28T05:28:07.192Z,96344.06
2023-04-28T05:30:10.410Z,96349.78
2023-04-28T05:32:12.641Z,96344.03
2023-04-28T05:34:14.888Z,96350.72
2023-04-28T05:36:17.067Z,96356.47
2023-04-28T05:38:23.229Z,96358.34
2023-04-28T05:40:26.331Z,96365.06
2023-04-28T05:42:28.198Z,96363.56
2023-04-28T05:44:31.470Z,96367.16
2023-04-28T05:46:34.706Z,96370.38
2023-04-28T05:48:36.393Z,96377.69
2023-04-28T05:50:39.110Z,96378.34
2023-04-28T05:52:40.879Z,96370.13
2023-04-28T05:54:43.226Z,96374.84
2023-04-28T05:56:44.896Z,96362.00
2023-04-28T05:58:49.586Z,96363.38
2023-04-28T06:00:51.297Z,96357.50
2023-04-28T06:02:53.532Z,96360.59
2023-04-28T06:04:56.210Z,96360.25
2023-04-28T06:06:58.164Z,96359.47
2023-04-28T06:09:00.510Z,96359.97
2023-04-28T06:11:01.991Z,96364.47
2023-04-28T06:13:04.901Z,96369.16
2023-04-28T06:15:07.045Z,96382.59
2023-04-28T06:17:08.882Z,96371.75
2023-04-28T06:19:10.558Z,96362.47
2023-04-28T06:21:12.324Z,96368.66
2023-04-28T06:23:14.254Z,96366.19
2023-04-28T06:25:19.749Z,96365.75
2023-04-28T06:27:22.279Z,96363.84
2023-04-28T06:29:24.699Z,96369.78
2023-04-28T06:31:26.389Z,96371.00
2023-04-28T06:33:29.054Z,96367.31
2023-04-28T06:35:30.824Z,96372.47
2023-04-28T06:37:32.373Z,96369.44
2023-04-28T06:39:34.020Z,96374.84
2023-04-28T06:41:35.814Z,96374.34
2023-04-28T06:43:39.298Z,96366.63
2023-04-28T06:45:55.784Z,96374.88
2023-04-28T06:48:00.497Z,96354.81
2023-04-28T06:50:02.029Z,96358.88
2023-04-28T06:52:08.798Z,96364.03
2023-04-28T06:54:11.576Z,96355.94
2023-04-28T06:56:15.920Z,96362.47
2023-04-28T06:58:17.715Z,96359.97
2023-04-28T07:00:19.350Z,96365.56
2023-04-28T07:02:21.053Z,96368.94
2023-04-28T07:04:23.066Z,96362.25
2023-04-28T07:06:27.393Z,96360.03
2023-04-28T07:08:30.732Z,96361.41
2023-04-28T07:10:32.315Z,96371.13
2023-04-28T07:12:33.864Z,96371.31
2023-04-28T07:14:35.560Z,96364.84
2023-04-28T07:16:37.335Z,96364.56
2023-04-28T07:18:39.235Z,96362.13
2023-04-28T07:20:40.889Z,96360.03
2023-04-28T07:22:42.437Z,96365.63
2023-04-28T07:24:44.636Z,96361.66
2023-04-28T07:26:46.497Z,96359.25
2023-04-28T07:28:48.374Z,96348.53
2023-04-28T07:30:49.891Z,96354.72
2023-04-28T07:32:51.722Z,96361.13
2023-04-28T07:34:53.516Z,96365.97
2023-04-28T07:36:55.253Z,96361.06
2023-04-28T07:38:57.357Z,96364.09
2023-04-28T07:40:59.607Z,96358.19
2023-04-28T07:43:01.245Z,96355.25
2023-04-28T07:45:02.942Z,96350.88
2023-04-28T07:47:05.121Z,96345.16
2023-04-28T07:49:08.463Z,96345.31
2023-04-28T07:51:09.992Z,96344.38
2023-04-28T07:53:11.855Z,96343.91
2023-04-28T07:55:13.444Z,96334.31
2023-04-28T07:57:15.096Z,96337.78
2023-04-28T07:59:16.688Z,96331.78
2023-04-28T08:01:18.780Z,96323.78
2023-04-28T08:03:21.408Z,96332.50
2023-04-28T08:05:23.294Z,96332.44
2023-04-28T08:07:24.905Z,96323.69
2023-04-28T08:09:26.663Z,96324.50
2023-04-28T08:11:28.459Z,96322.50
2023-04-28T08:13:30.725Z,96313.66
2023-04-28T08:15:32.626Z,96310.22
2023-04-28T08:17:34.277Z,96313.00
2023-04-28T08:19:35.922Z,96320.69
2023-04-28T08:21:37.514Z,96321.19
2023-04-28T08:23:39.039Z,96311.47
2023-04-28T08:25:40.680Z,96311.19
2023-04-28T08:27:42.372Z,96314.56
2023-04-28T08:29:44.162Z,96318.63
2023-04-28T08:31:46.162Z,96322.38
2023-04-28T08:33:51.150Z,96319.69
2023-04-28T08:35:52.795Z,96329.97
2023-04-28T08:37:54.482Z,96333.66
2023-04-28T08:40:02.085Z,96340.31
2023-04-28T08:42:07.419Z,96335.97
2023-04-28T08:44:10.156Z,96341.34
2023-04-28T08:46:14.666Z,96341.44
2023-04-28T08:48:21.128Z,96345.66
2023-04-28T08:50:23.168Z,96352.06
2023-04-28T08:52:27.694Z,96344.28
2023-04-28T08:54:36.547Z,96351.34
2023-04-28T08:56:39.010Z,96345.50
2023-04-28T08:58:40.752Z,96349.63
2023-04-28T09:00:42.316Z,96353.41
2023-04-28T09:02:44.131Z,96341.47
2023-04-28T09:04:47.944Z,96347.13
2023-04-28T09:06:49.578Z,96351.16
2023-04-28T09:08:51.197Z,96349.56
2023-04-28T09:11:09.971Z,96352.34
2023-04-28T09:13:25.060Z,96350.88
2023-04-28T09:15:26.925Z,96355.63
2023-04-28T09:17:28.484Z,96350.53
2023-04-28T09:19:37.485Z,96350.75
2023-04-28T09:21:54.162Z,96354.22
2023-04-28T09:23:55.854Z,96341.59
2023-04-28T09:26:01.147Z,96346.28
2023-04-28T09:28:20.164Z,96345.09
2023-04-28T09:30:38.924Z,96345.28
2023-04-28T09:32:40.537Z,96338.50
2023-04-28T09:35:01.616Z,96350.81
2023-04-28T09:37:15.501Z,96343.44
2023-04-28T09:39:28.549Z,96346.06
2023-04-28T09:41:41.344Z,96336.03
2023-04-28T09:43:43.500Z,96344.38
2023-04-28T09:45:45.706Z,96340.25
2023-04-28T09:47:48.302Z,96348.56
2023-04-28T09:49:57.829Z,96345.59
2023-04-28T09:52:15.296Z,96345.25
2023-04-28T09:54:18.397Z,96345.25
2023-04-28T09:56:21.167Z,96347.50
2023-04-28T09:58:24.698Z,96341.34
2023-04-28T10:00:26.983Z,96347.25
2023-04-28T10:04:35.268Z,96344.72
2023-04-28T10:06:37.069Z,96341.06
2023-04-28T10:08:40.507Z,96338.03
2023-04-28T10:10:44.091Z,96342.78
2023-04-28T10:12:46.186Z,96342.50
2023-04-28T10:14:54.365Z,96346.13
2023-04-28T10:16:58.997Z,96346.41
2023-04-28T10:19:03.180Z,96343.84
2023-04-28T10:21:07.391Z,96343.78
2023-04-28T10:23:31.934Z,96341.50
2023-04-28T10:25:36.520Z,96344.94
2023-04-28T10:27:45.984Z,96342.59
2023-04-28T10:29:48.420Z,96342.53
2023-04-28T10:32:23.718Z,96346.91
2023-04-28T10:34:29.549Z,96345.06
2023-04-28T10:36:50.849Z,96340.19
2023-04-28T10:39:12.657Z,96340.13
2023-04-28T10:41:32.255Z,96341.50
2023-04-28T10:43:37.777Z,96337.25
2023-04-28T10:45:56.379Z,96337.25
2023-04-28T10:48:06.267Z,96328.53
2023-04-28T10:50:09.415Z,96333.94
2023-04-28T10:52:33.060Z,96333.25
2023-04-28T10:54:34.661Z,96337.06
2023-04-28T10:56:36.233Z,96340.53
2023-04-28T10:58:42.570Z,96335.88
2023-04-28T11:00:47.916Z,96332.41
2023-04-28T11:02:50.135Z,96328.03
2023-04-28T11:05:12.155Z,96335.03
2023-04-28T11:07:14.860Z,96329.22
2023-04-28T11:09:19.341Z,96340.84
2023-04-28T11:11:25.983Z,96331.28
2023-04-28T11:13:31.686Z,96331.16
2023-04-28T11:15:33.332Z,96327.72
2023-04-28T11:17:41.840Z,96331.66
2023-04-28T11:19:45.375Z,96327.00
2023-04-28T11:21:48.332Z,96327.94
2023-04-28T11:23:50.423Z,96334.34
2023-04-28T11:25:56.666Z,96330.44
2023-04-28T11:28:04.972Z,96331.88
2023-04-28T11:30:22.702Z,96327.72
2023-04-28T11:32:32.056Z,96327.22
2023-04-28T11:34:34.992Z,96326.66
2023-04-28T11:36:39.075Z,96325.88
2023-04-28T11:38:46.971Z,96328.69
2023-04-28T11:40:59.033Z,96325.28
2023-04-28T11:43:01.890Z,96323.63
2023-04-28T11:45:12.862Z,96324.91
2023-04-28T11:47:14.805Z,96328.00
2023-04-28T11:49:17.406Z,96325.84
2023-04-28T11:51:32.761Z,96334.09
2023-04-28T11:53:44.447Z,96331.69
2023-04-28T11:55:46.029Z,96330.53
2023-04-28T11:57:47.817Z,96321.03
2023-04-28T11:59:50.370Z,96323.63
2023-04-28T12:01:59.149Z,96326.41
2023-04-28T12:04:01.201Z,96327.66
2023-04-28T12:06:03.615Z,96332.66
2023-04-28T12:08:05.533Z,96328.84
2023-04-28T12:10:12.863Z,96321.97
2023-04-28T12:12:40.253Z,96325.66
2023-04-28T12:15:01.772Z,96322.19
2023-04-28T12:17:04.329Z,96312.66
2023-04-28T12:19:09.886Z,96323.44
2023-04-28T12:21:21.280Z,96328.84
2023-04-28T12:23:33.109Z,96322.34
2023-04-28T12:25:44.621Z,96324.03
2023-04-28T12:27:59.249Z,96322.53
2023-04-28T12:30:01.205Z,96324.84
2023-04-28T12:32:03.416Z,96317.31
2023-04-28T12:34:05.151Z,96328.00
2023-04-28T12:36:07.656Z,96319.38
2023-04-28T12:38:11.623Z,96327.81
2023-04-28T12:40:14.644Z,96322.50
2023-04-28T12:42:16.392Z,96317.22
2023-04-28T12:44:18.163Z,96321.84
2023-04-28T12:46:19.911Z,96325.25
2023-04-28T12:48:24.131Z,96326.47
2023-04-28T12:50:26.944Z,96312.78
2023-04-28T12:52:28.501Z,96327.59
2023-04-28T12:54:31.056Z,96325.50
2023-04-28T12:56:32.850Z,96321.63
2023-04-28T12:58:34.682Z,96327.53
2023-04-28T13:00:36.210Z,96327.75
2023-04-28T13:02:38.267Z,96320.03
2023-04-28T13:04:40.178Z,96306.72
2023-04-28T13:06:44.031Z,96301.72
2023-04-28T13:08:45.984Z,96308.44
2023-04-28T13:10:47.527Z,96305.25
2023-04-28T13:12:49.057Z,96309.06
2023-04-28T13:14:51.291Z,96310.97
2023-04-28T13:16:56.747Z,96305.41
2023-04-28T13:18:59.787Z,96308.06
2023-04-28T13:21:01.398Z,96313.41
2023-04-28T13:23:03.444Z,96317.59
2023-04-28T13:25:05.291Z,96319.84
2023-04-28T13:27:09.543Z,96316.31
2023-04-28T13:29:11.303Z,96317.41
2023-04-28T13:31:13.897Z,96307.25
2023-04-28T13:33:15.475Z,96306.91
2023-04-28T13:35:17.545Z,96305.75
2023-04-28T13:37:19.272Z,96312.03
2023-04-28T13:39:22.022Z,96312.09
2023-04-28T13:41:24.214Z,96309.25
2023-04-28T13:43:25.829Z,96303.16
2023-04-28T13:45:28.632Z,96310.59
2023-04-28T13:47:32.538Z,96297.72
2023-04-28T13:49:34.747Z,96297.50
2023-04-28T13:55:51.193Z,96295.19
2023-04-28T13:57:56.833Z,96284.50
2023-04-28T13:59:58.373Z,96287.25
2023-04-28T14:01:59.914Z,96285.88
2023-04-28T14:04:02.089Z,96283.28
2023-04-28T14:06:04.251Z,96289.22
2023-04-28T14:08:06.174Z,96287.63
2023-04-28T14:10:08.092Z,96278.75
2023-04-28T14:12:11.110Z,96278.88
2023-04-28T14:14:12.897Z,96281.91
2023-04-28T14:16:14.536Z,96279.63
2023-04-28T14:18:16.314Z,96283.84
2023-04-28T14:20:18.428Z,96292.00
2023-04-28T14:22:20.574Z,96286.91
2023-04-28T14:24:22.397Z,96287.97
2023-04-28T14:26:24.527Z,96285.91
2023-04-28T14:28:26.547Z,96281.97
2023-04-28T14:30:28.228Z,96279.84
2023-04-28T14:32:30.571Z,96277.50
2023-04-28T14:34:32.354Z,96271.72
2023-04-28T14:36:34.325Z,96277.25
2023-04-28T14:38:38.278Z,96275.25
2023-04-28T14:40:43.474Z,96277.47
2023-04-28T14:42:45.294Z,96284.25
2023-04-28T14:44:47.817Z,96270.09
2023-04-28T14:46:49.968Z,96276.00
2023-04-28T14:48:53.213Z,96277.16
2023-04-28T14:50:55.287Z,96274.84
2023-04-28T14:52:57.362Z,96269.56
2023-04-28T14:54:59.700Z,96281.41
2023-04-28T14:57:01.664Z,96281.22
2023-04-28T14:59:03.606Z,96282.41
2023-04-28T15:01:05.437Z,96284.28
2023-04-28T15:03:07.225Z,96286.19
2023-04-28T15:05:10.052Z,96277.88
2023-04-28T15:07:12.785Z,96284.56
2023-04-28T15:09:14.439Z,96292.88
2023-04-28T15:11:16.446Z,96288.13
2023-04-28T15:13:18.166Z,96288.63
2023-04-28T15:15:20.121Z,96289.69
2023-04-28T15:17:23.032Z,96289.41
2023-04-28T15:19:25.141Z,96291.84
2023-04-28T15:21:27.746Z,96290.00
2023-04-28T15:23:29.926Z,96287.09
2023-04-28T15:25:31.480Z,96285.34
2023-04-28T15:27:33.230Z,96286.84
2023-04-28T15:29:35.364Z,96293.91
2023-04-28T15:31:38.529Z,96286.28
2023-04-28T15:33:41.279Z,96276.78
2023-04-28T15:35:44.351Z,96267.91
2023-04-28T15:37:47.855Z,96263.69
2023-04-28T15:39:53.076Z,96257.25
2023-04-28T15:41:55.050Z,96253.25
2023-04-28T15:43:57.766Z,96252.28
2023-04-28T15:46:00.590Z,96240.06
2023-04-28T15:48:02.552Z,96246.09
2023-04-28T15:50:05.167Z,96258.31
2023-04-28T15:52:07.153Z,96244.69
2023-04-28T15:54:08.844Z,96235.19
2023-04-28T15:56:11.569Z,96224.94
2023-04-28T15:58:14.772Z,96215.50
2023-04-28T16:00:17.046Z,96213.59
2023-04-28T16:02:25.383Z,96225.69
2023-04-28T16:04:28.259Z,96226.66
2023-04-28T16:06:31.262Z,96219.13
2023-04-28T16:08:33.702Z,96212.44
2023-04-28T16:10:35.490Z,96213.19
2023-04-28T16:12:38.814Z,96208.41
2023-04-28T16:14:40.425Z,96214.06
2023-04-28T16:16:42.425Z,96220.81
2023-04-28T16:18:44.715Z,96219.13
2023-04-28T16:20:46.997Z,96219.69
2023-04-28T16:22:49.292Z,96209.31
2023-04-28T16:24:51.456Z,96203.91
2023-04-28T16:26:54.640Z,96212.91
2023-04-28T16:28:56.477Z,96208.38
2023-04-28T16:30:58.515Z,96206.16
2023-04-28T16:33:00.426Z,96207.72
2023-04-28T16:35:02.436Z,96214.53
2023-04-28T16:37:07.213Z,96221.06
2023-04-28T16:39:09.617Z,96221.25
2023-04-28T16:41:11.607Z,96224.75
2023-04-28T16:43:14.304Z,96224.69
2023-04-28T16:45:16.528Z,96220.56
2023-04-28T16:47:18.453Z,96219.22
2023-04-28T16:49:20.588Z,96224.50
2023-04-28T16:51:22.713Z,96224.38
2023-04-28T16:53:24.671Z,96224.53
2023-04-28T16:55:27.004Z,96225.16
2023-04-28T16:57:29.277Z,96222.78
2023-04-28T16:59:31.187Z,96215.03
2023-04-28T17:01:33.028Z,96221.50
2023-04-28T17:03:42.649Z,96217.97
2023-04-28T17:05:44.808Z,96211.34
2023-04-28T17:07:46.829Z,96220.09
2023-04-28T17:09:49.246Z,96214.66
2023-04-28T17:11:51.680Z,96210.88
2023-04-28T17:13:53.279Z,96211.53
2023-04-28T17:15:59.277Z,96223.66
2023-04-28T17:18:01.966Z,96230.00
2023-04-28T17:20:04.975Z,96230.59
2023-04-28T17:22:07.194Z,96222.00
2023-04-28T17:24:09.333Z,96230.31
2023-04-28T17:26:11.417Z,96228.47
2023-04-28T17:28:13.304Z,96228.09
2023-04-28T17:30:15.332Z,96225.75
2023-04-28T17:32:17.288Z,96227.41
2023-04-28T17:34:20.168Z,96232.91
2023-04-28T17:36:23.478Z,96230.41
2023-04-28T17:38:25.033Z,96226.28
2023-04-28T17:40:27.961Z,96220.94
2023-04-28T17:42:32.083Z,96225.75
2023-04-28T17:44:34.228Z,96224.44
2023-04-28T17:46:36.804Z,96223.69
2023-04-28T17:48:39.059Z,96214.88
2023-04-28T17:50:40.959Z,96214.31
2023-04-28T17:52:44.073Z,96211.91
2023-04-28T17:54:46.462Z,96214.69
2023-04-28T17:56:48.524Z,96218.00
2023-04-28T17:58:52.131Z,96218.75
2023-04-28T18:01:04.998Z,96221.69
2023-04-28T18:03:06.991Z,96213.00
2023-04-28T18:05:09.706Z,96215.44
2023-04-28T18:07:11.463Z,96213.94
2023-04-28T18:09:13.156Z,96222.94
2023-04-28T18:11:16.057Z,96227.25
2023-04-28T18:13:17.653Z,96219.09
2023-04-28T18:15:20.059Z,96221.72
2023-04-28T18:17:23.402Z,96216.88
2023-04-28T18:19:28.758Z,96227.31
2023-04-28T18:21:30.706Z,96229.13
2023-04-28T18:23:33.570Z,96234.53
2023-04-28T18:25:37.158Z,96236.31
2023-04-28T18:27:39.094Z,96230.56
2023-04-28T18:29:42.427Z,96231.13
2023-04-28T18:31:44.499Z,96230.34
2023-04-28T18:33:46.148Z,96232.75
2023-04-28T18:35:48.529Z,96244.41
2023-04-28T18:37:50.289Z,96248.03
2023-04-28T18:39:56.961Z,96248.00
2023-04-28T18:42:04.101Z,96248.91
2023-04-28T18:44:13.277Z,96250.09
2023-04-28T18:46:15.254Z,96257.22
2023-04-28T18:48:17.663Z,96255.22
2023-04-28T18:50:19.440Z,96256.34
2023-04-28T18:52:21.230Z,96261.06
2023-04-28T18:54:22.841Z,96262.31
2023-04-28T18:56:25.771Z,96263.00
2023-04-28T18:58:28.819Z,96264.22
2023-04-28T19:00:31.055Z,96268.00
2023-04-28T19:02:33.173Z,96258.53
2023-04-28T19:04:35.500Z,96264.41
2023-04-28T19:06:37.464Z,96270.75
2023-04-28T19:08:39.358Z,96267.63
2023-04-28T19:10:43.095Z,96278.47
2023-04-28T19:12:45.016Z,96271.34
2023-04-28T19:14:46.956Z,96272.34
2023-04-28T19:16:48.774Z,96288.63
2023-04-28T19:18:50.430Z,96282.56
2023-04-28T19:21:00.736Z,96294.97
2023-04-28T19:23:03.847Z,96301.47
2023-04-28T19:25:07.033Z,96297.28
2023-04-28T19:27:09.016Z,96305.31
2023-04-28T19:29:16.658Z,96301.81
2023-04-28T19:31:18.394Z,96305.38
2023-04-28T19:33:20.372Z,96310.38
2023-04-28T19:35:22.353Z,96311.03
2023-04-28T19:37:25.603Z,96313.53
2023-04-28T19:39:29.247Z,96312.53
2023-04-28T19:41:31.389Z,96315.81
2023-04-28T19:43:33.044Z,96311.81
2023-04-28T19:45:35.963Z,96309.09
2023-04-28T19:47:37.825Z,96305.94
2023-04-28T19:49:41.404Z,96309.63
2023-04-28T19:51:43.020Z,96308.13
2023-04-28T19:53:46.602Z,96304.53
2023-04-28T19:55:48.201Z,96313.84
2023-04-28T19:57:50.512Z,96314.13
2023-04-28T19:59:52.910Z,96319.66
2023-04-28T20:01:55.601Z,96325.75
2023-04-28T20:03:58.822Z,96322.94
2023-04-28T20:06:01.403Z,96328.88
2023-04-28T20:08:03.498Z,96327.16
2023-04-28T20:10:06.428Z,96330.28
2023-04-28T20:12:09.067Z,96328.34
2023-04-28T20:14:10.706Z,96318.38
2023-04-28T20:16:12.474Z,96333.66
2023-04-28T20:18:14.326Z,96320.88
2023-04-28T20:20:16.653Z,96328.66
2023-04-28T20:22:20.771Z,96326.06
2023-04-28T20:24:23.427Z,96327.00
2023-04-28T20:26:25.132Z,96315.94
2023-04-28T20:28:27.576Z,96310.94
2023-04-28T20:30:29.544Z,96317.53
2023-04-28T20:32:32.135Z,96319.75
2023-04-28T20:34:34.138Z,96321.34
2023-04-28T20:36:36.131Z,96317.72
2023-04-28T20:38:39.408Z,96320.56
2023-04-28T20:40:42.367Z,96318.94
2023-04-28T20:42:44.588Z,96312.09
2023-04-28T20:44:47.221Z,96324.13
2023-04-28T20:46:49.824Z,96321.00
2023-04-28T20:48:51.677Z,96315.38
2023-04-28T20:50:55.266Z,96328.16
2023-04-28T20:52:56.923Z,96322.09
2023-04-28T20:54:59.084Z,96323.06
2023-04-28T20:57:04.411Z,96325.38
2023-04-28T20:59:06.256Z,96328.25
2023-04-28T21:01:08.424Z,96328.06
2023-04-28T21:03:15.587Z,96332.03
2023-04-28T21:05:17.712Z,96333.13
2023-04-28T21:07:19.381Z,96341.41
2023-04-28T21:09:21.425Z,96348.06
2023-04-28T21:11:24.978Z,96335.47
2023-04-28T21:13:26.962Z,96352.63
2023-04-28T21:15:28.966Z,96356.47
2023-04-28T21:17:30.694Z,96352.00
2023-04-28T21:19:33.441Z,96357.00
2023-04-28T21:21:35.887Z,96363.53
2023-04-28T21:23:40.403Z,96359.16
2023-04-28T21:25:42.120Z,96371.53
2023-04-28T21:27:44.012Z,96370.25
2023-04-28T21:29:45.662Z,96364.69
2023-04-28T21:31:47.583Z,96364.56
2023-04-28T21:33:49.243Z,96362.97
2023-04-28T21:35:50.987Z,96371.88
2023-04-28T21:37:53.116Z,96375.75
2023-04-28T21:39:56.196Z,96371.75
2023-04-28T21:41:58.889Z,96369.16
2023-04-28T21:44:01.090Z,96374.59
2023-04-28T21:46:02.982Z,96377.50
2023-04-28T21:48:06.587Z,96372.31
2023-04-28T21:50:08.914Z,96371.88
2023-04-28T21:52:11.065Z,96371.44
2023-04-28T21:54:13.469Z,96370.09
2023-04-28T21:56:16.111Z,96371.19
2023-04-28T21:58:17.756Z,96370.09
2023-04-28T22:00:19.751Z,96374.47
2023-04-28T22:02:22.266Z,96372.72
2023-04-28T22:04:26.679Z,96367.94
2023-04-28T22:06:31.716Z,96373.38
2023-04-28T22:08:33.660Z,96375.22
2023-04-28T22:10:36.645Z,96375.88
2023-04-28T22:12:38.745Z,96373.25
2023-04-28T22:14:41.715Z,96375.31
2023-04-28T22:16:43.418Z,96376.31
2023-04-28T22:18:45.711Z,96371.19
2023-04-28T22:20:48.277Z,96374.59
2023-04-28T22:22:50.327Z,96376.63
2023-04-28T22:24:52.563Z,96373.91
2023-04-28T22:26:54.864Z,96375.03
2023-04-28T22:28:56.741Z,96376.13
2023-04-28T22:30:58.791Z,96371.13
2023-04-28T22:33:00.758Z,96368.31
2023-04-28T22:35:02.569Z,96378.94
2023-04-28T22:37:04.259Z,96376.09
2023-04-28T22:39:06.309Z,96380.09
2023-04-28T22:41:07.929Z,96379.16
2023-04-28T22:43:10.026Z,96384.13
2023-04-28T22:45:12.319Z,96382.16
2023-04-28T22:47:14.808Z,96375.22
2023-04-28T22:49:17.069Z,96386.25
2023-04-28T22:51:18.943Z,96379.97
2023-04-28T22:53:23.211Z,96373.19
2023-04-28T22:55:24.840Z,96384.03
2023-04-28T22:57:27.104Z,96376.97
2023-04-28T22:59:28.843Z,96378.69
2023-04-28T23:01:30.467Z,96374.22
2023-04-28T23:03:33.625Z,96378.50
2023-04-28T23:05:39.087Z,96371.63
2023-04-28T23:07:41.117Z,96363.00
2023-04-28T23:09:42.857Z,96367.97
2023-04-28T23:11:44.671Z,96362.25
2023-04-28T23:13:46.264Z,96363.16
2023-04-28T23:15:48.053Z,96357.78
2023-04-28T23:17:49.925Z,96360.31
2023-04-28T23:19:52.346Z,96363.22
2023-04-28T23:21:57.179Z,96362.78
2023-04-28T23:23:59.800Z,96368.38
2023-04-28T23:26:02.411Z,96368.69
2023-04-28T23:28:04.278Z,96366.84
2023-04-28T23:30:06.770Z,96359.84
2023-04-28T23:32:08.430Z,96366.59
2023-04-28T23:34:10.379Z,96369.63
2023-04-28T23:36:12.592Z,96368.94
2023-04-28T23:38:14.409Z,96373.75
2023-04-28T23:40:16.366Z,96369.53
2023-04-28T23:42:18.238Z,96370.56
2023-04-28T23:44:20.366Z,96369.06
2023-04-28T23:46:22.014Z,96362.78
2023-04-28T23:48:23.757Z,96363.38
2023-04-28T23:50:26.145Z,96357.44
2023-04-28T23:52:28.410Z,96361.28
2023-04-28T23:54:30.708Z,96360.84
2023-04-28T23:56:32.380Z,96358.25
2023-04-28T23:58:34.003Z,96363.91
